Time;durP1;ratioP1;P1;durP2;ratioP2;P2;SDS_P1;SDS_P2;PMS_P1;PMS_P2;Temp;Humidity;BMP_temperature;BMP_pressure;BME280_temperature;BME280_humidity;BME280_pressure;Samples;Min_cycle;Max_cycle;Signal;HPM_P1;HPM_P2
2021/07/28 00:01:07;;;;;;;9.48;5.55;;;;;;;16.13;81.90;100841.13;5015947;28;20391;-70
2021/07/28 00:03:32;;;;;;;9.55;5.00;;;;;;;16.10;82.33;100831.03;5001915;28;20022;-70
2021/07/28 00:05:58;;;;;;;15.13;6.10;;;;;;;16.12;81.94;100823.84;5000481;28;20395;-70
2021/07/28 00:08:23;;;;;;;12.52;5.55;;;;;;;16.12;81.87;100829.06;5003048;28;20037;-70
2021/07/28 00:10:49;;;;;;;12.68;4.90;;;;;;;16.09;82.21;100826.81;5008231;28;20118;-70
2021/07/28 00:13:14;;;;;;;10.30;6.10;;;;;;;16.07;82.23;100822.81;5014100;28;20088;-70
2021/07/28 00:15:41;;;;;;;9.27;5.22;;;;;;;16.08;82.40;100827.81;4988606;28;20025;-70
2021/07/28 00:18:14;;;;;;;14.45;6.15;;;;;;;16.07;82.28;100820.19;5017320;28;20062;-70
2021/07/28 00:23:14;;;;;;;7.75;4.97;;;;;;;16.12;81.46;100817.78;5005484;28;20041;-70
2021/07/28 00:25:42;;;;;;;17.73;5.63;;;;;;;16.09;81.42;100812.94;5007283;28;20079;-70
2021/07/28 00:28:07;;;;;;;10.95;5.10;;;;;;;16.09;81.27;100807.72;5011751;28;20068;-69
2021/07/28 00:30:34;;;;;;;11.50;5.20;;;;;;;16.09;81.22;100802.50;5004475;28;20034;-70
2021/07/28 00:32:59;;;;;;;9.95;5.38;;;;;;;16.09;81.10;100808.53;4988370;28;20029;-70
2021/07/28 00:35:25;;;;;;;10.68;5.47;;;;;;;16.13;80.73;100804.50;4999520;28;20091;-69
2021/07/28 00:37:51;;;;;;;13.23;5.18;;;;;;;16.09;81.29;100802.50;4998158;28;20484;-70
2021/07/28 00:40:17;;;;;;;9.90;5.25;;;;;;;16.07;81.50;100802.69;4996004;28;20053;-70
2021/07/28 00:42:42;;;;;;;10.65;6.05;;;;;;;16.06;81.20;100797.63;5008697;28;20489;-69
2021/07/28 00:45:08;;;;;;;10.18;5.65;;;;;;;16.00;81.71;100796.59;4998795;28;20500;-71
2021/07/28 00:47:34;;;;;;;10.77;5.65;;;;;;;16.06;81.11;100795.00;4989900;28;20168;-70
2021/07/28 00:50:01;;;;;;;13.35;5.35;;;;;;;15.95;81.14;100786.72;5010348;28;20042;-70
2021/07/28 00:52:29;;;;;;;15.27;5.60;;;;;;;16.01;81.25;100795.59;5011718;28;20022;-70
2021/07/28 00:54:55;;;;;;;12.05;6.30;;;;;;;15.91;81.64;100793.31;5010202;28;20037;-70
2021/07/28 00:57:20;;;;;;;8.15;5.07;;;;;;;15.89;81.91;100789.28;5010614;28;20539;-71
2021/07/28 00:59:46;;;;;;;11.40;6.07;;;;;;;15.85;81.72;100788.03;4994933;28;20037;-70
2021/07/28 01:02:17;;;;;;;10.55;5.70;;;;;;;15.87;82.07;100793.88;5005524;28;20025;-70
2021/07/28 01:04:43;;;;;;;11.65;5.60;;;;;;;15.87;81.90;100783.44;5008678;28;20383;-70
2021/07/28 01:07:09;;;;;;;9.30;4.85;;;;;;;15.86;81.86;100780.03;4990649;28;20548;-70
2021/07/28 01:09:35;;;;;;;8.27;5.22;;;;;;;15.88;82.05;100785.88;5007427;28;20029;-70
2021/07/28 01:12:03;;;;;;;16.23;6.53;;;;;;;15.90;81.65;100778.63;5004908;28;20038;-70
2021/07/28 01:14:29;;;;;;;15.15;5.88;;;;;;;15.88;82.10;100779.81;5001371;28;20072;-70
2021/07/28 01:16:55;;;;;;;14.05;7.10;;;;;;;15.94;81.92;100785.09;5008369;28;20029;-70
2021/07/28 01:19:29;;;;;;;10.63;5.90;;;;;;;15.89;82.06;100784.84;5007323;28;20038;-70
2021/07/28 01:21:58;;;;;;;14.13;6.35;;;;;;;15.88;82.39;100780.63;5003870;28;20066;-70
2021/07/28 01:24:24;;;;;;;11.15;5.60;;;;;;;15.87;82.67;100783.44;4989422;28;20434;-70
2021/07/28 01:26:50;;;;;;;11.30;6.53;;;;;;;15.99;82.77;100775.84;5005158;28;20095;-70
2021/07/28 01:29:16;;;;;;;13.93;6.78;;;;;;;15.91;83.18;100774.19;5004024;28;20145;-69
2021/07/28 01:31:43;;;;;;;12.88;6.68;;;;;;;15.93;83.16;100778.22;4998795;28;20029;-69
2021/07/28 01:34:10;;;;;;;19.88;7.10;;;;;;;16.01;83.13;100774.69;5004672;28;20080;-71
2021/07/28 01:36:36;;;;;;;18.33;7.22;;;;;;;16.09;82.67;100777.13;5003570;28;20057;-71
2021/07/28 01:39:08;;;;;;;20.15;6.90;;;;;;;15.99;82.94;100775.84;5004091;28;20128;-70
2021/07/28 01:41:33;;;;;;;11.82;7.32;;;;;;;15.92;83.26;100770.59;5007753;28;20551;-70
2021/07/28 01:44:00;;;;;;;15.65;6.25;;;;;;;15.89;83.62;100771.78;5001945;28;20048;-69
2021/07/28 01:46:25;;;;;;;13.48;6.35;;;;;;;15.87;83.62;100775.59;4999147;28;20038;-70
2021/07/28 01:48:51;;;;;;;17.30;7.80;;;;;;;15.91;83.28;100764.53;5009573;28;20034;-71
2021/07/28 01:51:16;;;;;;;20.38;6.68;;;;;;;15.99;82.83;100776.66;4999113;28;20038;-70
2021/07/28 01:53:43;;;;;;;14.98;7.85;;;;;;;15.98;82.50;100771.66;5015223;28;20317;-69
2021/07/28 01:56:09;;;;;;;17.90;6.95;;;;;;;15.91;83.03;100771.59;5009179;28;20044;-69
2021/07/28 01:58:38;;;;;;;16.90;7.30;;;;;;;15.84;83.26;100771.56;5000309;28;20057;-70
2021/07/28 02:01:04;;;;;;;23.35;7.88;;;;;;;15.85;82.66;100777.59;4991863;28;20036;-70
2021/07/28 02:03:30;;;;;;;24.60;8.38;;;;;;;15.75;83.48;100768.28;4999211;28;20030;-70
2021/07/28 02:05:55;;;;;;;14.70;7.50;;;;;;;15.69;83.24;100773.41;4984287;28;20403;-70
2021/07/28 02:08:21;;;;;;;17.02;7.97;;;;;;;15.71;83.02;100764.41;4984263;28;20026;-70
2021/07/28 02:10:50;;;;;;;13.32;6.97;;;;;;;15.70;83.14;100773.22;5006178;28;20045;-70
2021/07/28 02:13:17;;;;;;;17.30;7.78;;;;;;;15.64;83.35;100763.53;5005028;28;20037;-70
2021/07/28 02:15:43;;;;;;;18.05;7.32;;;;;;;15.58;83.63;100761.69;4998441;28;20026;-70
2021/07/28 02:18:09;;;;;;;19.30;8.10;;;;;;;15.58;83.58;100761.69;4988760;28;20034;-70
2021/07/28 02:20:34;;;;;;;18.65;7.63;;;;;;;15.56;83.45;100764.50;5000234;28;20037;-70
2021/07/28 02:23:01;;;;;;;13.95;7.63;;;;;;;15.53;83.50;100764.06;5028835;28;20399;-70
2021/07/28 02:25:27;;;;;;;12.85;6.55;;;;;;;15.50;83.88;100762.63;5012738;28;20037;-70
2021/07/28 02:27:53;;;;;;;15.73;7.57;;;;;;;15.52;83.85;100767.66;5016304;28;20403;-70
2021/07/28 02:30:18;;;;;;;26.45;8.05;;;;;;;15.54;83.83;100765.69;5007523;28;20030;-70
2021/07/28 02:32:45;;;;;;;20.83;8.98;;;;;;;15.62;83.85;100760.31;4989811;28;20431;-71
2021/07/28 02:35:14;;;;;;;20.48;8.02;;;;;;;15.64;83.39;100765.34;5001141;28;20053;-70
2021/07/28 02:37:42;;;;;;;20.30;8.55;;;;;;;15.49;83.91;100760.22;5003235;28;20026;-69
2021/07/28 02:40:12;;;;;;;22.10;9.18;;;;;;;15.45;84.19;100764.22;4980248;28;20036;-71
2021/07/28 02:42:37;;;;;;;28.48;8.45;;;;;;;15.56;83.65;100759.25;4975720;28;20488;-71
2021/07/28 02:45:03;;;;;;;19.98;7.80;;;;;;;15.42;84.43;100754.91;5007408;28;20056;-70
2021/07/28 02:47:29;;;;;;;19.77;8.75;;;;;;;15.54;84.09;100755.22;4981467;28;20025;-70
2021/07/28 02:49:54;;;;;;;24.63;9.40;;;;;;;15.46;84.15;100750.13;5010015;28;20052;-70
2021/07/28 02:52:20;;;;;;;20.65;9.15;;;;;;;15.46;84.33;100747.50;5005866;28;20538;-70
2021/07/28 02:54:45;;;;;;;20.27;8.90;;;;;;;15.48;84.11;100750.75;5006191;28;20400;-70
2021/07/28 02:57:11;;;;;;;21.85;8.63;;;;;;;15.45;84.68;100748.53;4997682;28;20511;-70
2021/07/28 02:59:36;;;;;;;19.45;9.80;;;;;;;15.49;84.23;100744.53;4999410;28;20045;-71
2021/07/28 03:02:02;;;;;;;22.33;8.13;;;;;;;15.54;84.07;100742.16;5003652;28;20030;-70
2021/07/28 03:04:28;;;;;;;18.63;8.48;;;;;;;15.46;84.40;100745.69;4999256;28;20038;-69
2021/07/28 03:06:53;;;;;;;25.58;9.20;;;;;;;15.53;84.28;100743.16;5008286;28;20037;-69
2021/07/28 03:09:19;;;;;;;20.63;8.88;;;;;;;15.53;84.26;100746.56;5017025;28;20025;-71
2021/07/28 03:11:44;;;;;;;22.23;8.55;;;;;;;15.53;84.04;100749.19;5004621;28;20029;-70
2021/07/28 03:14:10;;;;;;;22.67;9.70;;;;;;;15.49;84.18;100741.91;5006565;28;20030;-69
2021/07/28 03:16:39;;;;;;;19.60;8.48;;;;;;;15.50;84.36;100743.53;4996030;28;20034;-70
2021/07/28 03:19:04;;;;;;;20.35;8.10;;;;;;;15.54;83.90;100742.16;5010389;28;20033;-69
2021/07/28 03:21:29;;;;;;;17.55;9.25;;;;;;;15.56;84.15;100742.78;5013950;28;20041;-70
2021/07/28 03:23:55;;;;;;;16.42;7.50;;;;;;;15.51;84.47;100748.56;5013763;28;20045;-69
2021/07/28 03:26:20;;;;;;;17.85;8.20;;;;;;;15.50;84.74;100746.97;5003143;28;20065;-70
2021/07/28 03:28:46;;;;;;;21.98;8.82;;;;;;;15.58;84.20;100743.41;5009994;28;20241;-70
2021/07/28 03:31:11;;;;;;;21.80;8.73;;;;;;;15.53;84.14;100746.56;5008106;28;20036;-69
2021/07/28 03:33:37;;;;;;;24.27;9.10;;;;;;;15.54;84.39;100747.41;5011837;28;20451;-70
2021/07/28 03:36:03;;;;;;;14.70;8.02;;;;;;;15.50;84.89;100736.50;5004146;28;20519;-70
2021/07/28 03:38:28;;;;;;;21.13;7.75;;;;;;;15.53;84.44;100745.75;5007880;28;20109;-69
2021/07/28 03:40:54;;;;;;;14.90;8.00;;;;;;;15.62;84.41;100738.59;5002651;28;20476;-70
2021/07/28 03:43:19;;;;;;;14.95;8.15;;;;;;;15.57;84.68;100742.56;4987349;28;20392;-69
2021/07/28 03:45:45;;;;;;;14.32;7.50;;;;;;;15.54;84.65;100742.97;5001938;28;20048;-70
2021/07/28 03:48:10;;;;;;;20.65;8.23;;;;;;;15.55;84.92;100744.56;5005241;28;20026;-69
2021/07/28 03:50:36;;;;;;;16.85;8.50;;;;;;;15.56;84.58;100746.19;5001247;28;20491;-70
2021/07/28 03:53:02;;;;;;;17.27;8.25;;;;;;;15.62;84.60;100751.66;5006755;28;20026;-70
2021/07/28 03:55:27;;;;;;;19.25;8.52;;;;;;;15.71;84.46;100746.09;4989987;28;20044;-70
2021/07/28 03:57:53;;;;;;;18.88;7.90;;;;;;;15.64;84.45;100758.31;5005320;28;20033;-70
2021/07/28 04:00:19;;;;;;;22.40;8.52;;;;;;;15.67;84.47;100755.31;5007010;28;20030;-70
2021/07/28 04:02:45;;;;;;;23.25;8.20;;;;;;;15.66;84.58;100750.28;5008438;28;20420;-69
2021/07/28 04:05:11;;;;;;;15.65;7.95;;;;;;;15.64;84.38;100754.91;5016291;28;20488;-69
2021/07/28 04:07:37;;;;;;;17.45;6.95;;;;;;;15.61;84.63;100750.03;4987754;28;20577;-69
2021/07/28 04:10:02;;;;;;;15.98;7.70;;;;;;;15.61;84.89;100753.44;5005164;28;20041;-70
2021/07/28 04:12:28;;;;;;;17.17;8.98;;;;;;;15.63;85.08;100748.03;5006292;28;20033;-70
2021/07/28 04:14:53;;;;;;;12.45;7.90;;;;;;;15.62;85.18;100752.47;5010771;28;20076;-69
2021/07/28 04:17:19;;;;;;;13.15;7.13;;;;;;;15.65;85.08;100754.72;5005256;28;20088;-70
2021/07/28 04:19:49;;;;;;;13.07;7.22;;;;;;;15.69;84.78;100752.50;5008584;28;20030;-70
2021/07/28 04:22:18;;;;;;;12.90;7.65;;;;;;;15.71;84.71;100755.75;5003955;28;20057;-69
2021/07/28 04:24:44;;;;;;;19.15;8.93;;;;;;;15.78;84.66;100754.00;5006232;28;20036;-70
2021/07/28 04:27:09;;;;;;;25.33;8.48;;;;;;;15.79;84.77;100754.84;5011787;28;20038;-70
2021/07/28 04:29:35;;;;;;;20.27;9.55;;;;;;;15.84;84.84;100758.50;5002779;28;20053;-69
2021/07/28 04:32:00;;;;;;;13.48;7.68;;;;;;;15.81;84.82;100758.06;5004220;28;20037;-70
2021/07/28 04:34:26;;;;;;;18.55;8.02;;;;;;;15.86;84.98;100756.50;5003194;28;20046;-69
2021/07/28 04:36:51;;;;;;;16.60;7.88;;;;;;;15.86;85.02;100753.03;5011428;28;20030;-70
2021/07/28 04:39:17;;;;;;;20.13;8.48;;;;;;;15.86;84.72;100753.88;5023008;28;20547;-70
2021/07/28 04:41:42;;;;;;;16.25;7.70;;;;;;;15.85;84.98;100757.47;5002377;28;20049;-70
2021/07/28 04:44:08;;;;;;;15.27;8.63;;;;;;;15.93;84.91;100769.59;5000946;28;20030;-70
2021/07/28 04:46:34;;;;;;;22.88;8.35;;;;;;;16.06;84.55;100766.25;5007146;28;20447;-72
2021/07/28 04:48:59;;;;;;;18.05;8.90;;;;;;;15.99;84.42;100757.56;5004143;28;20037;-69
2021/07/28 04:51:26;;;;;;;18.25;8.18;;;;;;;15.91;85.04;100756.69;4994469;28;20524;-70
2021/07/28 04:53:52;;;;;;;22.88;8.80;;;;;;;15.92;85.03;100760.13;5010057;28;20022;-69
2021/07/28 04:56:17;;;;;;;22.52;9.02;;;;;;;15.95;84.89;100754.50;5007057;28;20533;-71
2021/07/28 04:58:43;;;;;;;16.75;8.77;;;;;;;16.00;84.87;100756.56;4999204;28;20045;-70
2021/07/28 05:01:08;;;;;;;20.65;9.18;;;;;;;16.04;84.76;100755.19;5006804;28;20099;-70
2021/07/28 05:03:34;;;;;;;14.20;8.00;;;;;;;15.97;84.71;100752.50;5004263;28;20041;-69
2021/07/28 05:05:59;;;;;;;17.25;9.10;;;;;;;16.03;85.00;100753.53;5003637;28;20038;-69
2021/07/28 05:08:25;;;;;;;18.15;7.28;;;;;;;15.98;85.32;100761.97;5004282;28;20323;-70
2021/07/28 05:10:50;;;;;;;19.42;8.55;;;;;;;16.02;85.29;100749.34;5012211;28;20037;-70
2021/07/28 05:13:16;;;;;;;17.08;8.60;;;;;;;16.05;85.33;100746.31;5013100;28;20487;-70
2021/07/28 05:15:42;;;;;;;13.13;8.07;;;;;;;16.00;85.08;100746.09;5005166;28;20048;-70
2021/07/28 05:18:07;;;;;;;16.58;9.27;;;;;;;16.22;84.60;100750.25;5005646;28;20028;-70
2021/07/28 05:20:34;;;;;;;18.35;9.25;;;;;;;16.21;84.40;100753.03;5008499;28;20038;-70
2021/07/28 05:22:59;;;;;;;13.93;8.75;;;;;;;16.25;84.47;100754.28;5009572;28;20049;-70
2021/07/28 05:25:28;;;;;;;20.67;8.48;;;;;;;16.21;84.80;100746.00;5007542;28;20037;-69
2021/07/28 05:27:54;;;;;;;15.13;8.10;;;;;;;16.17;84.96;100749.22;4983123;23;20494;-69
2021/07/28 05:30:19;;;;;;;22.92;9.35;;;;;;;16.22;84.46;100744.19;4985506;28;20077;-69
2021/07/28 05:32:45;;;;;;;19.20;9.05;;;;;;;16.24;84.72;100742.22;4984983;28;20319;-69
2021/07/28 05:35:10;;;;;;;18.05;8.73;;;;;;;16.30;84.24;100747.44;4983205;28;20030;-69
2021/07/28 05:37:36;;;;;;;21.77;9.77;;;;;;;16.24;84.78;100737.78;4979811;28;20034;-71
2021/07/28 05:40:02;;;;;;;20.33;8.90;;;;;;;16.37;84.45;100747.50;4987548;28;20358;-69
2021/07/28 05:42:27;;;;;;;18.42;8.60;;;;;;;16.44;84.29;100743.06;4985437;28;20050;-69
2021/07/28 05:44:53;;;;;;;15.82;8.35;;;;;;;16.40;84.29;100741.84;4987258;28;20027;-70
2021/07/28 05:47:18;;;;;;;15.98;8.38;;;;;;;16.44;84.60;100742.28;4984700;28;20041;-71
2021/07/28 05:49:44;;;;;;;21.00;9.70;;;;;;;16.62;83.68;100739.91;4993295;28;20076;-70
2021/07/28 05:52:09;;;;;;;13.93;8.88;;;;;;;16.73;82.84;100738.53;4987627;28;20023;-69
2021/07/28 05:54:35;;;;;;;18.88;9.20;;;;;;;16.84;83.04;100737.16;4994571;28;20030;-70
2021/07/28 05:57:00;;;;;;;17.02;8.65;;;;;;;16.86;82.46;100732.56;4987212;28;20038;-70
2021/07/28 05:59:27;;;;;;;19.83;8.75;;;;;;;16.86;83.16;100735.19;4983075;28;20196;-69
2021/07/28 06:01:52;;;;;;;24.90;8.52;;;;;;;17.01;81.86;100737.59;4993282;28;20042;-69
2021/07/28 06:04:18;;;;;;;25.23;8.98;;;;;;;16.99;82.10;100739.59;4985734;28;20041;-70
2021/07/28 06:06:43;;;;;;;23.73;9.15;;;;;;;16.90;82.38;100737.19;4994160;28;20026;-69
2021/07/28 06:09:09;;;;;;;16.17;8.70;;;;;;;16.92;82.59;100739.63;4990972;28;20046;-70
2021/07/28 06:11:34;;;;;;;13.07;8.20;;;;;;;16.88;83.17;100741.03;4995295;28;20132;-70
2021/07/28 06:14:00;;;;;;;15.90;7.80;;;;;;;16.84;83.19;100745.84;4987412;28;20489;-70
2021/07/28 06:16:25;;;;;;;18.00;8.48;;;;;;;16.86;83.46;100756.94;4992554;28;20100;-72
2021/07/28 06:18:51;;;;;;;12.07;7.50;;;;;;;16.83;83.81;100754.69;4989985;28;20053;-70
2021/07/28 06:21:16;;;;;;;13.52;8.20;;;;;;;16.79;84.46;100750.03;4989603;28;20085;-70
2021/07/28 06:23:42;;;;;;;13.93;8.32;;;;;;;16.82;84.68;100742.63;4990082;28;20439;-73
2021/07/28 06:26:08;;;;;;;10.80;7.50;;;;;;;16.75;85.51;100747.00;4986729;28;20113;-70
2021/07/28 06:28:33;;;;;;;19.50;8.02;;;;;;;16.69;86.18;100742.56;4984270;28;20069;-71
2021/07/28 06:30:59;;;;;;;11.65;7.55;;;;;;;16.63;86.11;100745.94;4988804;28;20030;-70
2021/07/28 06:33:25;;;;;;;12.90;7.57;;;;;;;16.65;86.17;100743.94;4983945;28;20552;-71
2021/07/28 06:35:52;;;;;;;13.45;8.35;;;;;;;16.67;86.33;100742.75;4990737;28;20034;-71
2021/07/28 06:38:18;;;;;;;17.98;8.60;;;;;;;16.76;85.63;100745.19;4988802;28;20038;-70
2021/07/28 06:40:45;;;;;;;14.48;8.20;;;;;;;16.80;85.99;100742.00;4990412;28;20128;-70
2021/07/28 06:43:11;;;;;;;14.88;8.02;;;;;;;16.85;86.08;100736.97;4983081;28;20458;-70
2021/07/28 06:45:37;;;;;;;15.18;8.18;;;;;;;16.96;86.37;100745.25;4986883;28;20025;-70
2021/07/28 06:48:03;;;;;;;16.48;8.90;;;;;;;17.09;86.01;100742.66;4985002;28;20476;-71
2021/07/28 06:50:28;;;;;;;14.27;7.63;;;;;;;17.17;85.76;100745.06;4982688;28;20130;-72
2021/07/28 06:52:54;;;;;;;12.70;7.75;;;;;;;17.18;85.87;100745.88;4997596;28;20381;-70
2021/07/28 06:55:19;;;;;;;12.05;7.75;;;;;;;17.21;86.00;100740.25;4987851;28;20029;-70
2021/07/28 06:57:45;;;;;;;20.13;9.20;;;;;;;17.34;85.90;100752.53;4995027;28;20045;-71
2021/07/28 07:00:11;;;;;;;15.90;7.95;;;;;;;17.38;85.89;100744.06;4988934;28;20432;-70
2021/07/28 07:02:36;;;;;;;15.13;8.88;;;;;;;17.42;85.98;100762.81;4987382;28;20031;-70
2021/07/28 07:05:03;;;;;;;17.45;9.15;;;;;;;17.50;86.85;100784.41;4988639;28;20396;-70
2021/07/28 07:07:28;;;;;;;18.25;10.27;;;;;;;17.53;86.61;100777.94;4990058;28;20046;-71
2021/07/28 07:09:55;;;;;;;17.85;9.55;;;;;;;17.45;87.09;100783.38;4994234;28;20558;-70
2021/07/28 07:12:21;;;;;;;9.18;7.00;;;;;;;17.31;85.76;100780.78;4995696;28;20181;-70
2021/07/28 07:14:48;;;;;;;10.98;5.82;;;;;;;17.22;85.01;100789.84;4987166;28;20045;-71
2021/07/28 07:17:14;;;;;;;15.05;5.90;;;;;;;17.08;84.64;100775.91;4999300;28;20108;-71
2021/07/28 07:19:39;;;;;;;8.75;4.45;;;;;;;17.01;84.36;100784.75;4993077;28;20331;-71
2021/07/28 07:22:05;;;;;;;10.73;5.30;;;;;;;16.97;84.85;100773.06;4989972;28;20042;-70
2021/07/28 07:24:30;;;;;;;13.05;5.82;;;;;;;17.03;83.86;100778.31;4989057;28;20029;-70
2021/07/28 07:26:56;;;;;;;7.78;4.53;;;;;;;17.01;84.07;100782.94;4989553;28;20626;-70
2021/07/28 07:29:21;;;;;;;9.40;4.93;;;;;;;17.11;83.88;100783.34;4982755;28;20030;-70
2021/07/28 07:31:47;;;;;;;7.90;5.18;;;;;;;17.11;84.38;100787.78;4987759;28;20471;-70
2021/07/28 07:34:13;;;;;;;10.52;5.28;;;;;;;17.11;84.73;100790.41;4991103;28;20092;-70
2021/07/28 07:36:39;;;;;;;10.43;5.07;;;;;;;17.09;84.57;100788.00;4993642;28;20042;-71
2021/07/28 07:39:05;;;;;;;8.00;4.85;;;;;;;17.08;84.93;100785.56;4993580;28;20041;-71
2021/07/28 07:41:31;;;;;;;10.13;5.50;;;;;;;17.12;84.97;100784.16;4991182;28;20088;-71
2021/07/28 07:43:57;;;;;;;10.80;4.97;;;;;;;17.13;84.11;100788.41;4992913;28;20117;-70
2021/07/28 07:46:42;;;;;;;7.03;4.40;;;;;;;17.14;84.16;100784.78;4990974;28;20049;-70
2021/07/28 07:49:09;;;;;;;7.97;5.20;;;;;;;17.10;83.89;100786.16;4988836;28;20100;-71
2021/07/28 07:51:34;;;;;;;10.40;5.50;;;;;;;17.11;84.93;100780.75;4991423;28;20447;-71
2021/07/28 07:54:00;;;;;;;10.38;5.18;;;;;;;17.14;85.41;100776.94;4991333;28;20707;-70
2021/07/28 07:56:27;;;;;;;9.63;5.93;;;;;;;17.25;84.16;100768.47;4991675;28;20488;-70
2021/07/28 07:58:53;;;;;;;6.78;5.10;;;;;;;17.33;84.21;100764.84;4990158;28;20038;-73
2021/07/28 08:01:18;;;;;;;9.90;5.50;;;;;;;17.35;84.69;100775.09;4989971;28;20041;-72
2021/07/28 08:03:44;;;;;;;12.00;6.15;;;;;;;17.44;84.58;100761.63;4988214;28;20278;-70
2021/07/28 08:06:09;;;;;;;21.63;6.57;;;;;;;17.51;84.96;100758.97;4994477;28;20026;-70
2021/07/28 08:08:37;;;;;;;9.98;5.57;;;;;;;17.57;84.75;100767.84;4993205;28;20376;-70
2021/07/28 08:11:10;;;;;;;10.07;5.90;;;;;;;18.17;84.22;100765.94;4985562;28;20451;-71
2021/07/28 08:13:36;;;;;;;10.48;6.25;;;;;;;19.15;81.18;100761.44;4990158;28;20400;-70
2021/07/28 08:16:09;;;;;;;11.18;5.60;;;;;;;20.08;77.00;100758.00;4991114;28;20060;-70
2021/07/28 08:18:34;;;;;;;9.18;5.75;;;;;;;20.72;74.21;100768.13;4993289;28;20050;-70
2021/07/28 08:21:01;;;;;;;7.43;5.40;;;;;;;21.12;73.39;100764.94;4993384;28;20030;-70
2021/07/28 08:23:27;;;;;;;12.40;5.90;;;;;;;21.42;72.40;100762.22;4994643;28;20061;-69
2021/07/28 08:25:52;;;;;;;8.38;4.20;;;;;;;21.34;70.20;100763.38;4989544;28;20080;-70
2021/07/28 08:28:18;;;;;;;9.57;5.18;;;;;;;20.95;68.90;100765.59;4987709;28;20054;-70
2021/07/28 08:30:43;;;;;;;8.07;5.25;;;;;;;20.89;73.68;100770.94;4985409;28;20030;-70
2021/07/28 08:33:10;;;;;;;7.82;4.60;;;;;;;21.22;69.29;100759.09;4986292;28;20400;-70
2021/07/28 08:35:35;;;;;;;10.18;4.80;;;;;;;21.69;71.42;100764.44;4993563;28;20015;-71
2021/07/28 08:38:01;;;;;;;12.43;4.78;;;;;;;22.00;69.05;100763.25;4981937;28;20554;-70
2021/07/28 08:40:27;;;;;;;9.50;4.35;;;;;;;22.07;69.49;100758.63;4996759;28;20041;-70
2021/07/28 08:42:54;;;;;;;7.63;4.35;;;;;;;22.59;67.26;100757.00;4992984;28;20030;-72
2021/07/28 08:45:20;;;;;;;8.80;4.65;;;;;;;22.69;65.27;100752.69;4989261;28;20010;-69
2021/07/28 08:47:46;;;;;;;7.00;4.35;;;;;;;22.67;65.15;100752.13;4991787;28;20034;-71
2021/07/28 08:50:13;;;;;;;8.93;4.55;;;;;;;22.81;65.44;100746.53;4998487;28;20542;-71
2021/07/28 08:52:41;;;;;;;6.25;4.30;;;;;;;23.27;62.96;100744.66;4988152;28;20045;-69
2021/07/28 08:55:08;;;;;;;8.68;3.80;;;;;;;23.21;63.49;100746.44;4982752;28;20037;-71
2021/07/28 08:57:35;;;;;;;5.80;4.15;;;;;;;23.50;62.88;100744.47;4988431;28;20109;-72
2021/07/28 09:00:01;;;;;;;6.60;3.95;;;;;;;23.39;62.40;100747.22;4969471;28;20034;-70
2021/07/28 09:02:27;;;;;;;11.02;3.90;;;;;;;23.62;62.24;100735.63;4985987;28;20393;-70
2021/07/28 09:04:53;;;;;;;8.60;3.90;;;;;;;23.77;62.04;100735.03;4988885;28;20350;-70
2021/07/28 09:07:20;;;;;;;10.73;5.05;;;;;;;24.08;61.13;100736.22;4992380;28;20042;-70
2021/07/28 09:09:53;;;;;;;17.15;5.10;;;;;;;24.38;59.70;100738.41;4988076;28;20034;-71
2021/07/28 09:12:19;;;;;;;;;;;;;;;24.09;60.74;100737.81;4987583;28;20038;-71
2021/07/28 09:14:53;;;;;;;8.73;4.10;;;;;;;24.29;57.90;100742.56;4984603;28;19917;-71
2021/07/28 09:17:23;;;;;;;5.15;3.88;;;;;;;24.05;58.56;100744.66;4991228;28;20042;-70
2021/07/28 09:19:50;;;;;;;5.22;3.38;;;;;;;24.38;60.81;100733.09;4995288;28;20034;-71
2021/07/28 09:22:18;;;;;;;11.50;4.28;;;;;;;24.63;57.13;100745.81;4986331;28;20361;-70
2021/07/28 09:24:50;;;;;;;6.72;4.00;;;;;;;24.64;57.02;100752.75;4989411;28;20030;-71
2021/07/28 09:27:46;;;;;;;8.98;3.92;;;;;;;24.72;56.88;100756.78;4985480;28;20515;-70
2021/07/28 09:30:29;;;;;;;7.05;3.45;;;;;;;24.74;55.09;100759.97;4972890;28;20037;-70
2021/07/28 09:33:02;;;;;;;5.13;2.92;;;;;;;24.74;55.53;100754.69;4982831;28;20049;-70
2021/07/28 09:35:54;;;;;;;4.43;3.30;;;;;;;25.01;57.11;100746.66;4990952;28;20508;-70
2021/07/28 09:38:43;;;;;;;4.68;2.95;;;;;;;25.16;58.04;100756.59;4976538;28;20058;-71
2021/07/28 09:41:23;;;;;;;5.85;2.75;;;;;;;24.96;53.92;100756.44;4973189;28;20054;-71
2021/07/28 09:43:53;;;;;;;7.07;2.63;;;;;;;24.71;54.40;100733.97;4988825;28;20060;-69
2021/07/28 09:46:24;;;;;;;4.15;2.40;;;;;;;25.19;53.93;100739.41;4983799;28;20034;-71
2021/07/28 09:48:50;;;;;;;4.65;2.33;;;;;;;25.16;53.77;100735.38;4987206;28;20037;-70
2021/07/28 09:51:40;;;;;;;4.65;2.20;;;;;;;25.37;54.03;100736.38;4989056;28;20190;-71
2021/07/28 09:54:07;;;;;;;5.13;2.60;;;;;;;25.60;52.49;100739.69;4982373;28;20034;-70
2021/07/28 09:56:54;;;;;;;4.18;1.85;;;;;;;25.36;49.22;100734.75;4995466;28;20043;-71
2021/07/28 09:59:22;;;;;;;5.30;1.92;;;;;;;25.37;49.16;100739.03;4991331;28;20034;-70
2021/07/28 10:01:48;;;;;;;5.25;1.92;;;;;;;25.52;50.98;100737.50;4985124;28;20042;-70
2021/07/28 10:04:16;;;;;;;3.28;1.70;;;;;;;25.30;49.28;100725.16;4995064;28;20117;-70
2021/07/28 10:06:48;;;;;;;3.63;1.85;;;;;;;25.14;51.58;100731.41;4964467;28;20041;-70
2021/07/28 10:09:16;;;;;;;;;;;;;;;24.54;52.04;100728.00;4990127;28;20035;-70
2021/07/28 10:11:52;;;;;;;4.45;1.95;;;;;;;24.45;51.28;100722.31;5001035;28;20008;-70
2021/07/28 10:14:20;;;;;;;2.88;1.75;;;;;;;24.23;51.84;100730.31;4984980;28;20124;-71
2021/07/28 10:16:46;;;;;;;3.22;1.83;;;;;;;24.38;53.12;100721.72;4994557;28;20022;-71
2021/07/28 10:19:12;;;;;;;3.72;1.70;;;;;;;24.02;49.93;100714.19;5001819;28;20184;-71
2021/07/28 10:21:38;;;;;;;3.20;2.10;;;;;;;24.07;50.45;100721.38;4993392;28;20560;-70
2021/07/28 10:24:05;;;;;;;6.22;1.67;;;;;;;24.33;54.03;100719.81;5003826;28;20065;-71
2021/07/28 10:26:37;;;;;;;4.25;1.80;;;;;;;24.05;51.40;100720.81;4989932;28;20100;-72
2021/07/28 10:29:04;;;;;;;8.57;1.55;;;;;;;24.01;49.42;100717.06;4989613;28;20057;-71
2021/07/28 10:31:43;;;;;;;2.47;1.70;;;;;;;24.03;50.30;100723.72;4989631;28;20049;-71
2021/07/28 10:34:20;;;;;;;3.08;1.70;;;;;;;23.69;50.29;100717.72;4991933;28;20347;-70
2021/07/28 10:36:47;;;;;;;3.15;1.70;;;;;;;23.96;50.87;100720.47;4987189;28;20069;-70
2021/07/28 10:39:43;;;;;;;3.30;1.85;;;;;;;24.37;48.07;100709.50;4990084;28;20461;-71
2021/07/28 10:42:18;;;;;;;2.70;1.55;;;;;;;24.79;50.16;100714.16;4989664;28;20457;-70
2021/07/28 10:45:01;;;;;;;3.63;1.75;;;;;;;24.33;47.84;100722.44;4989651;28;20041;-71
2021/07/28 10:47:40;;;;;;;;;;;;;;;24.16;50.83;100714.59;4991888;28;20057;-70
2021/07/28 10:50:07;;;;;;;2.72;1.88;;;;;;;23.55;48.36;100712.00;4994724;28;19975;-71
2021/07/28 10:52:37;;;;;;;3.08;2.00;;;;;;;23.30;52.18;100717.72;4989865;28;20031;-70
2021/07/28 10:55:03;;;;;;;5.88;2.35;;;;;;;23.04;52.30;100712.06;4973619;28;20041;-71
2021/07/28 10:57:43;;;;;;;2.30;1.75;;;;;;;23.28;50.99;100717.16;4988187;28;20097;-71
2021/07/28 11:00:11;;;;;;;6.30;1.80;;;;;;;23.57;50.11;100723.13;4987357;28;20038;-71
2021/07/28 11:02:52;;;;;;;7.00;1.73;;;;;;;24.17;51.26;100713.56;4988778;28;20505;-71
2021/07/28 11:05:25;;;;;;;4.78;2.58;;;;;;;24.58;50.27;100710.53;4984479;28;20527;-69
2021/07/28 11:08:03;;;;;;;2.90;1.65;;;;;;;24.38;46.32;100709.25;4988421;28;20045;-71
2021/07/28 11:10:31;;;;;;;2.53;1.63;;;;;;;24.41;49.20;100715.91;4987203;28;20041;-70
2021/07/28 11:12:57;;;;;;;5.78;2.03;;;;;;;24.64;47.65;100726.25;4987839;28;20077;-70
2021/07/28 11:15:23;;;;;;;2.75;1.80;;;;;;;24.47;46.89;100712.28;4986117;28;20058;-70
2021/07/28 11:17:53;;;;;;;4.80;1.40;;;;;;;24.52;46.69;100712.34;4986183;28;20114;-71
2021/07/28 11:20:32;;;;;;;9.70;1.60;;;;;;;24.57;47.81;100714.25;4985399;28;20504;-70
2021/07/28 11:23:21;;;;;;;5.47;1.33;;;;;;;24.33;47.52;100719.81;4991026;28;20080;-70